createdAt,value
2022-09-29T00:02:07.596Z,95784.28
2022-09-29T00:04:34.236Z,95777.16
2022-09-29T00:07:00.759Z,95786.91
2022-09-29T00:09:27.348Z,95779.66
2022-09-29T00:11:55.763Z,95784.31
2022-09-29T00:14:23.302Z,95785.38
2022-09-29T00:16:50.611Z,95780.16
2022-09-29T00:19:17.342Z,95772.53
2022-09-29T00:21:43.879Z,95770.88
2022-09-29T00:24:10.322Z,95771.84
2022-09-29T00:26:36.869Z,95771.00
2022-09-29T00:29:03.529Z,95765.38
2022-09-29T00:31:32.286Z,95760.25
2022-09-29T00:33:59.196Z,95753.81
2022-09-29T00:36:29.509Z,95750.13
2022-09-29T00:38:56.507Z,95747.94
2022-09-29T00:41:29.133Z,95741.88
2022-09-29T00:44:05.908Z,95745.97
2022-09-29T00:46:53.593Z,95753.00
2022-09-29T00:49:27.034Z,95752.75
2022-09-29T00:51:59.255Z,95751.19
2022-09-29T00:54:33.016Z,95743.97
2022-09-29T00:57:02.567Z,95743.34
2022-09-29T00:59:53.840Z,95755.00
2022-09-29T01:02:22.174Z,95758.47
2022-09-29T01:04:52.001Z,95749.31
2022-09-29T01:07:21.692Z,95749.41
2022-09-29T01:09:50.916Z,95747.25
2022-09-29T01:12:17.889Z,95745.03
2022-09-29T01:14:45.059Z,95744.28
2022-09-29T01:17:11.567Z,95744.28
2022-09-29T01:20:00.725Z,95730.88
2022-09-29T01:23:00.701Z,95724.03
2022-09-29T01:25:33.090Z,95719.34
2022-09-29T01:28:11.584Z,95730.97
2022-09-29T01:30:57.711Z,95726.66
2022-09-29T01:33:52.614Z,95727.69
2022-09-29T01:36:28.081Z,95726.22
2022-09-29T01:39:16.322Z,95729.47
2022-09-29T01:42:08.664Z,95733.53
2022-09-29T01:44:42.646Z,95729.66
2022-09-29T01:47:21.544Z,95732.00
2022-09-29T01:49:56.001Z,95740.56
2022-09-29T01:52:27.078Z,95731.38
2022-09-29T01:55:06.051Z,95732.94
2022-09-29T01:57:47.815Z,95729.41
2022-09-29T02:00:17.594Z,95721.06
2022-09-29T02:03:04.264Z,95719.63
2022-09-29T02:05:36.665Z,95721.41
2022-09-29T02:08:14.960Z,95711.81
2022-09-29T02:10:50.165Z,95714.22
2022-09-29T02:13:18.639Z,95721.13
2022-09-29T02:15:48.369Z,95719.75
2022-09-29T02:18:21.904Z,95714.03
2022-09-29T02:20:50.611Z,95719.16
2022-09-29T02:23:18.139Z,95732.38
2022-09-29T02:25:48.575Z,95736.25
2022-09-29T02:28:16.389Z,95744.09
2022-09-29T02:30:42.975Z,95741.28
2022-09-29T02:33:23.527Z,95746.16
2022-09-29T02:36:13.635Z,95738.16
2022-09-29T02:38:43.933Z,95736.75
2022-09-29T02:41:19.372Z,95733.75
2022-09-29T02:44:12.906Z,95735.94
2022-09-29T02:46:58.249Z,95721.97
2022-09-29T02:49:46.011Z,95719.56
2022-09-29T02:52:16.194Z,95716.44
2022-09-29T02:55:10.842Z,95717.47
2022-09-29T02:57:53.517Z,95712.53
2022-09-29T03:00:21.039Z,95711.53
2022-09-29T03:02:47.648Z,95713.72
2022-09-29T03:05:23.923Z,95722.47
2022-09-29T03:07:50.480Z,95726.25
2022-09-29T03:10:18.109Z,95723.22
2022-09-29T03:12:44.997Z,95725.06
2022-09-29T03:15:12.603Z,95716.22
2022-09-29T03:17:40.396Z,95711.75
2022-09-29T03:20:08.203Z,95716.75
2022-09-29T03:22:34.705Z,95712.16
2022-09-29T03:25:01.365Z,95713.72
2022-09-29T03:27:27.892Z,95707.34
2022-09-29T03:29:54.403Z,95713.50
2022-09-29T03:32:20.922Z,95712.66
2022-09-29T03:34:47.439Z,95710.25
2022-09-29T03:37:14.004Z,95714.72
2022-09-29T03:39:40.701Z,95716.91
2022-09-29T03:42:07.418Z,95714.19
2022-09-29T03:44:33.895Z,95712.75
2022-09-29T03:47:00.840Z,95702.22
2022-09-29T03:49:27.338Z,95694.63
2022-09-29T03:51:53.857Z,95692.81
2022-09-29T03:54:20.325Z,95696.38
2022-09-29T03:56:46.814Z,95689.06
2022-09-29T03:59:15.156Z,95683.72
2022-09-29T04:01:41.802Z,95693.53
2022-09-29T04:04:09.759Z,95708.63
2022-09-29T04:06:36.479Z,95714.31
2022-09-29T04:09:03.630Z,95715.16
2022-09-29T04:11:30.133Z,95715.09
2022-09-29T04:13:56.640Z,95721.88
2022-09-29T04:16:23.164Z,95715.09
2022-09-29T04:18:49.643Z,95711.22
2022-09-29T04:21:16.820Z,95705.47
2022-09-29T04:23:43.273Z,95708.47
2022-09-29T04:26:09.905Z,95705.63
2022-09-29T04:28:37.234Z,95716.66
2022-09-29T04:31:03.956Z,95720.66
2022-09-29T04:33:31.301Z,95724.53
2022-09-29T04:35:59.441Z,95724.69
2022-09-29T04:38:26.188Z,95716.56
2022-09-29T04:40:52.889Z,95714.81
2022-09-29T04:43:19.620Z,95712.75
2022-09-29T04:45:46.162Z,95719.91
2022-09-29T04:48:12.767Z,95719.97
2022-09-29T04:50:39.420Z,95729.69
2022-09-29T04:53:07.678Z,95720.63
2022-09-29T04:55:34.156Z,95725.22
2022-09-29T04:58:00.955Z,95729.03
2022-09-29T05:00:27.453Z,95728.94
2022-09-29T05:02:53.900Z,95728.75
2022-09-29T05:05:20.368Z,95732.44
2022-09-29T05:07:48.179Z,95732.72
2022-09-29T05:10:14.680Z,95723.06
2022-09-29T05:12:41.200Z,95728.88
2022-09-29T05:15:08.399Z,95728.75
2022-09-29T05:17:34.964Z,95730.44
2022-09-29T05:20:01.711Z,95728.47
2022-09-29T05:22:28.193Z,95740.25
2022-09-29T05:24:54.741Z,95747.69
2022-09-29T05:27:22.359Z,95745.03
2022-09-29T05:29:49.302Z,95741.06
2022-09-29T05:32:15.917Z,95733.81
2022-09-29T05:34:42.449Z,95730.50
2022-09-29T05:37:11.953Z,95726.97
2022-09-29T05:39:39.698Z,95719.41
2022-09-29T05:42:11.307Z,95721.66
2022-09-29T05:44:42.279Z,95726.66
2022-09-29T05:48:00.820Z,95719.84
2022-09-29T05:50:54.127Z,95715.00
2022-09-29T05:53:20.611Z,95725.63
2022-09-29T05:55:47.066Z,95728.59
2022-09-29T05:58:13.944Z,95732.34
2022-09-29T06:00:40.431Z,95731.75
2022-09-29T06:03:06.973Z,95718.56
2022-09-29T06:05:33.515Z,95727.25
2022-09-29T06:08:03.932Z,95728.22
2022-09-29T06:10:30.449Z,95734.47
2022-09-29T06:12:57.221Z,95741.13
2022-09-29T06:15:24.270Z,95740.91
2022-09-29T06:17:56.650Z,95729.59
2022-09-29T06:20:23.593Z,95731.75
2022-09-29T06:22:51.605Z,95724.72
2022-09-29T06:25:18.111Z,95723.97
2022-09-29T06:27:44.569Z,95722.94
2022-09-29T06:30:13.181Z,95719.25
2022-09-29T06:32:40.795Z,95712.78
2022-09-29T06:35:26.050Z,95712.59
2022-09-29T06:37:56.460Z,95710.88
2022-09-29T06:40:23.796Z,95701.84
2022-09-29T06:42:50.355Z,95699.03
2022-09-29T06:45:20.306Z,95714.78
2022-09-29T06:47:48.562Z,95716.00
2022-09-29T06:50:19.741Z,95706.81
2022-09-29T06:52:56.378Z,95709.00
2022-09-29T06:55:25.293Z,95700.22
2022-09-29T06:57:51.777Z,95694.22
2022-09-29T07:00:18.271Z,95694.28
2022-09-29T07:02:47.766Z,95694.34
2022-09-29T07:05:14.496Z,95694.94
2022-09-29T07:07:40.952Z,95700.31
2022-09-29T07:10:07.914Z,95710.03
2022-09-29T07:12:34.412Z,95709.50
2022-09-29T07:15:01.107Z,95707.50
2022-09-29T07:17:27.587Z,95712.34
2022-09-29T07:19:56.004Z,95711.59
2022-09-29T07:22:22.526Z,95708.44
2022-09-29T07:24:50.959Z,95712.06
2022-09-29T07:27:23.459Z,95706.22
2022-09-29T07:30:02.753Z,95712.91
2022-09-29T07:32:32.517Z,95722.50
2022-09-29T07:34:59.975Z,95698.59
2022-09-29T07:37:30.453Z,95701.00
2022-09-29T07:39:57.185Z,95702.63
2022-09-29T07:42:23.887Z,95696.34
2022-09-29T07:44:52.517Z,95706.91
2022-09-29T07:47:19.437Z,95714.31
2022-09-29T07:49:46.347Z,95716.25
2022-09-29T07:52:14.114Z,95719.47
2022-09-29T07:54:40.715Z,95723.16
2022-09-29T07:57:10.014Z,95724.94
2022-09-29T07:59:36.494Z,95724.38
2022-09-29T08:02:04.359Z,95721.78
2022-09-29T08:04:31.267Z,95728.19
2022-09-29T08:06:57.735Z,95730.59
2022-09-29T08:09:38.043Z,95739.06
2022-09-29T08:12:08.367Z,95738.94
2022-09-29T08:14:35.519Z,95738.72
2022-09-29T08:17:02.076Z,95737.72
2022-09-29T08:19:28.708Z,95734.09
2022-09-29T08:21:55.191Z,95741.41
2022-09-29T08:24:21.707Z,95745.91
2022-09-29T08:26:48.193Z,95754.38
2022-09-29T08:29:17.130Z,95759.13
2022-09-29T08:31:44.858Z,95759.97
2022-09-29T08:34:11.478Z,95762.81
2022-09-29T08:36:37.960Z,95754.13
2022-09-29T08:39:05.122Z,95750.78
2022-09-29T08:41:52.252Z,95752.13
2022-09-29T08:44:40.732Z,95753.25
2022-09-29T08:47:44.438Z,95748.84
2022-09-29T08:50:27.012Z,95740.59
2022-09-29T08:52:59.515Z,95732.44
2022-09-29T08:55:42.128Z,95732.19
2022-09-29T08:58:13.088Z,95734.00
2022-09-29T09:00:45.354Z,95731.47
2022-09-29T09:03:23.424Z,95734.75
2022-09-29T09:06:21.400Z,95741.13
2022-09-29T09:08:47.992Z,95731.41
2022-09-29T09:11:41.734Z,95734.34
2022-09-29T09:14:30.110Z,95732.47
2022-09-29T09:17:25.605Z,95725.50
2022-09-29T09:20:12.940Z,95727.31
2022-09-29T09:22:45.662Z,95723.41
2022-09-29T09:25:27.981Z,95722.53
2022-09-29T09:28:20.754Z,95715.75
2022-09-29T09:30:58.439Z,95720.41
2022-09-29T09:33:37.212Z,95722.97
2022-09-29T09:36:08.791Z,95719.47
2022-09-29T09:38:43.508Z,95715.22
2022-09-29T09:41:10.261Z,95714.38
2022-09-29T09:43:42.476Z,95713.72
2022-09-29T09:46:45.454Z,95704.56
2022-09-29T09:49:17.649Z,95698.34
2022-09-29T09:52:04.622Z,95705.91
2022-09-29T09:54:33.390Z,95709.38
2022-09-29T09:56:59.765Z,95709.59
2022-09-29T09:59:29.267Z,95713.94
2022-09-29T10:01:55.737Z,95710.28
2022-09-29T10:04:23.481Z,95713.66
2022-09-29T10:06:50.605Z,95713.50
2022-09-29T10:09:17.366Z,95720.28
2022-09-29T10:11:44.377Z,95712.88
2022-09-29T10:14:26.395Z,95715.25
2022-09-29T10:17:01.565Z,95711.72
2022-09-29T10:19:55.801Z,95715.06
2022-09-29T10:22:22.456Z,95717.34
2022-09-29T10:24:57.666Z,95707.03
2022-09-29T10:27:28.431Z,95716.16
2022-09-29T10:29:56.952Z,95720.97
2022-09-29T10:32:36.597Z,95716.38
2022-09-29T10:35:26.305Z,95716.34
2022-09-29T10:38:17.717Z,95715.75
2022-09-29T10:41:03.381Z,95716.50
2022-09-29T10:43:40.119Z,95721.44
2022-09-29T10:46:26.754Z,95718.53
2022-09-29T10:49:13.889Z,95727.47
2022-09-29T10:51:53.589Z,95723.16
2022-09-29T10:54:25.631Z,95720.03
2022-09-29T10:56:52.921Z,95713.91
2022-09-29T10:59:19.751Z,95716.53
2022-09-29T11:01:50.380Z,95707.94
2022-09-29T11:04:22.540Z,95716.56
2022-09-29T11:06:49.854Z,95718.88
2022-09-29T11:09:16.289Z,95720.84
2022-09-29T11:11:48.985Z,95722.72
2022-09-29T11:14:27.286Z,95723.94
2022-09-29T11:16:56.507Z,95723.13
2022-09-29T11:19:23.808Z,95713.16
2022-09-29T11:21:53.209Z,95719.78
2022-09-29T11:24:19.595Z,95722.06
2022-09-29T11:26:58.361Z,95726.31
2022-09-29T11:29:36.434Z,95723.84
2022-09-29T11:32:11.484Z,95731.31
2022-09-29T11:34:40.066Z,95727.78
2022-09-29T11:37:28.178Z,95722.53
2022-09-29T11:40:19.130Z,95726.31
2022-09-29T11:43:03.796Z,95723.16
2022-09-29T11:45:50.659Z,95726.16
2022-09-29T11:48:26.126Z,95724.00
2022-09-29T11:50:58.587Z,95725.97
2022-09-29T11:53:34.229Z,95713.50
2022-09-29T11:56:00.574Z,95708.91
2022-09-29T11:58:56.241Z,95708.19
2022-09-29T12:01:27.728Z,95713.78
2022-09-29T12:04:12.583Z,95713.13
2022-09-29T12:06:38.962Z,95718.00
2022-09-29T12:09:16.228Z,95718.63
2022-09-29T12:12:18.993Z,95715.28
2022-09-29T12:14:51.035Z,95713.59
2022-09-29T12:17:18.925Z,95712.31
2022-09-29T12:19:45.728Z,95706.66
2022-09-29T12:22:15.755Z,95716.38
2022-09-29T12:24:51.619Z,95714.91
2022-09-29T12:27:17.946Z,95715.88
2022-09-29T12:29:46.022Z,95710.88
2022-09-29T12:32:19.391Z,95709.09
2022-09-29T12:34:48.979Z,95709.22
2022-09-29T12:37:34.200Z,95716.81
2022-09-29T12:40:16.776Z,95721.53
2022-09-29T12:42:43.206Z,95731.13
2022-09-29T12:45:31.643Z,95727.13
2022-09-29T12:48:25.812Z,95715.50
2022-09-29T12:51:10.363Z,95711.53
2022-09-29T12:54:03.236Z,95723.56
2022-09-29T12:56:37.097Z,95728.13
2022-09-29T12:59:13.313Z,95738.13
2022-09-29T13:01:40.674Z,95731.09
2022-09-29T13:04:14.704Z,95730.66
2022-09-29T13:07:10.082Z,95727.19
2022-09-29T13:10:01.386Z,95723.28
2022-09-29T13:12:40.403Z,95711.91
2022-09-29T13:15:53.461Z,95717.75
2022-09-29T13:18:29.881Z,95723.09
2022-09-29T13:21:40.504Z,95731.63
2022-09-29T13:24:21.388Z,95733.75
2022-09-29T13:27:32.778Z,95728.69
2022-09-29T13:30:11.279Z,95730.91
2022-09-29T13:32:44.159Z,95730.41
2022-09-29T13:35:17.203Z,95739.03
2022-09-29T13:37:56.372Z,95744.34
2022-09-29T13:40:25.961Z,95741.38
2022-09-29T13:42:58.143Z,95743.88
2022-09-29T13:45:29.201Z,95737.38
2022-09-29T13:48:01.848Z,95736.22
2022-09-29T13:50:44.161Z,95737.38
2022-09-29T13:53:37.516Z,95741.56
2022-09-29T13:56:04.232Z,95740.88
2022-09-29T13:58:34.230Z,95735.59
2022-09-29T14:01:05.865Z,95744.50
2022-09-29T14:03:36.654Z,95744.69
2022-09-29T14:06:22.593Z,95751.78
2022-09-29T14:09:05.575Z,95764.84
2022-09-29T14:11:34.898Z,95769.44
2022-09-29T14:14:21.270Z,95757.94
2022-09-29T14:17:12.050Z,95766.44
2022-09-29T14:20:06.083Z,95764.16
2022-09-29T14:22:38.452Z,95771.97
2022-09-29T14:25:10.996Z,95765.59
2022-09-29T14:27:49.285Z,95766.47
2022-09-29T14:30:37.046Z,95770.16
2022-09-29T14:33:11.906Z,95780.66
2022-09-29T14:35:44.665Z,95779.88
2022-09-29T14:38:27.660Z,95777.41
2022-09-29T14:40:58.366Z,95783.81
2022-09-29T14:43:36.867Z,95796.78
2022-09-29T14:46:25.124Z,95793.56
2022-09-29T14:49:10.271Z,95793.56
2022-09-29T14:51:59.157Z,95799.31
2022-09-29T14:54:48.515Z,95802.91
2022-09-29T14:57:49.648Z,95808.59
2022-09-29T15:00:19.159Z,95805.81
2022-09-29T15:02:59.800Z,95799.31
2022-09-29T15:05:33.714Z,95800.19
2022-09-29T15:08:02.360Z,95793.84
2022-09-29T15:10:31.842Z,95793.25
2022-09-29T15:13:31.401Z,95797.28
2022-09-29T15:16:05.383Z,95792.97
2022-09-29T15:19:01.401Z,95791.19
2022-09-29T15:21:49.722Z,95792.06
2022-09-29T15:24:30.179Z,95792.13
2022-09-29T15:27:00.595Z,95781.56
2022-09-29T15:29:27.040Z,95777.03
2022-09-29T15:31:54.378Z,95771.69
2022-09-29T15:34:22.356Z,95778.25
2022-09-29T15:36:51.819Z,95781.69
2022-09-29T15:39:33.504Z,95780.41
2022-09-29T15:42:02.038Z,95785.63
2022-09-29T15:44:29.256Z,95795.75
2022-09-29T15:46:58.600Z,95788.31
2022-09-29T15:49:28.521Z,95788.19
2022-09-29T15:51:59.052Z,95797.34
2022-09-29T15:54:34.272Z,95793.44
2022-09-29T15:57:19.626Z,95802.09
2022-09-29T15:59:50.266Z,95816.44
2022-09-29T16:02:36.737Z,95821.41
2022-09-29T16:05:05.563Z,95823.06
2022-09-29T16:07:34.606Z,95819.47
2022-09-29T16:10:14.285Z,95820.88
2022-09-29T16:12:46.940Z,95827.81
2022-09-29T16:15:18.282Z,95827.81
2022-09-29T16:17:47.316Z,95826.13
2022-09-29T16:20:19.263Z,95830.59
2022-09-29T16:22:47.823Z,95839.00
2022-09-29T16:25:23.370Z,95834.72
2022-09-29T16:28:00.138Z,95852.03
2022-09-29T16:30:28.471Z,95844.38
2022-09-29T16:33:14.862Z,95852.28
2022-09-29T16:35:48.856Z,95854.63
2022-09-29T16:38:24.340Z,95858.22
2022-09-29T16:40:56.826Z,95857.94
2022-09-29T16:43:27.993Z,95864.19
2022-09-29T16:45:57.103Z,95861.13
2022-09-29T16:48:25.862Z,95861.94
2022-09-29T16:50:59.030Z,95866.94
2022-09-29T16:53:33.580Z,95865.94
2022-09-29T16:56:29.329Z,95870.78
2022-09-29T16:59:03.446Z,95871.97
2022-09-29T17:01:29.965Z,95881.66
2022-09-29T17:03:56.395Z,95877.63
2022-09-29T17:06:22.786Z,95879.56
2022-09-29T17:08:51.790Z,95884.38
2022-09-29T17:11:18.997Z,95890.59
2022-09-29T17:13:45.514Z,95892.22
2022-09-29T17:16:12.917Z,95891.94
2022-09-29T17:18:39.311Z,95893.69
2022-09-29T17:21:05.632Z,95908.59
2022-09-29T17:23:32.978Z,95903.66
2022-09-29T17:26:19.368Z,95901.41
2022-09-29T17:28:45.801Z,95910.13
2022-09-29T17:31:12.973Z,95914.41
2022-09-29T17:33:41.388Z,95909.28
2022-09-29T17:36:12.500Z,95921.97
2022-09-29T17:38:39.651Z,95927.25
2022-09-29T17:41:06.611Z,95927.78
2022-09-29T17:43:33.037Z,95937.16
2022-09-29T17:46:00.572Z,95939.94
2022-09-29T17:48:27.726Z,95942.00
2022-09-29T17:50:56.541Z,95946.91
2022-09-29T17:53:25.380Z,95957.81
2022-09-29T17:55:57.138Z,95959.63
2022-09-29T17:58:24.455Z,95962.34
2022-09-29T18:00:53.959Z,95959.63
2022-09-29T18:03:22.136Z,95960.44
2022-09-29T18:05:55.980Z,95956.53
2022-09-29T18:08:25.401Z,95961.78
2022-09-29T18:10:59.617Z,95965.84
2022-09-29T18:13:27.875Z,95973.59
2022-09-29T18:15:55.757Z,95978.03
2022-09-29T18:18:23.370Z,95981.25
2022-09-29T18:20:50.764Z,95977.69
2022-09-29T18:23:23.118Z,95974.19
2022-09-29T18:25:51.476Z,95980.31
2022-09-29T18:28:18.840Z,95976.38
2022-09-29T18:30:52.294Z,95976.50
2022-09-29T18:33:20.235Z,95981.28
2022-09-29T18:35:53.635Z,95991.78
2022-09-29T18:38:20.920Z,95990.47
2022-09-29T18:40:48.692Z,95987.97
2022-09-29T18:43:15.346Z,95989.25
2022-09-29T18:45:43.665Z,95996.09
2022-09-29T18:48:14.900Z,95995.47
2022-09-29T18:50:46.710Z,96000.00
2022-09-29T18:53:16.269Z,96002.50
2022-09-29T18:55:42.826Z,96016.50
2022-09-29T18:58:12.834Z,96021.50
2022-09-29T19:00:43.397Z,96030.09
2022-09-29T19:03:09.880Z,96031.31
2022-09-29T19:05:40.282Z,96037.38
2022-09-29T19:08:06.841Z,96037.88
2022-09-29T19:10:36.475Z,96038.59
2022-09-29T19:13:08.025Z,96049.22
2022-09-29T19:15:39.360Z,96042.91
2022-09-29T19:18:07.499Z,96044.19
2022-09-29T19:20:35.065Z,96045.13
2022-09-29T19:23:05.626Z,96051.84
2022-09-29T19:25:35.752Z,96051.84
2022-09-29T19:28:06.114Z,96053.16
2022-09-29T19:30:33.920Z,96049.59
2022-09-29T19:33:00.424Z,96054.84
2022-09-29T19:35:28.979Z,96056.59
2022-09-29T19:37:58.096Z,96064.97
2022-09-29T19:40:28.501Z,96067.59
2022-09-29T19:42:55.265Z,96068.66
2022-09-29T19:45:22.105Z,96075.47
2022-09-29T19:47:53.340Z,96074.41
2022-09-29T19:50:39.323Z,96075.72
2022-09-29T19:53:06.006Z,96071.78
2022-09-29T19:55:32.630Z,96077.63
2022-09-29T19:57:59.481Z,96080.38
2022-09-29T20:00:26.006Z,96076.69
2022-09-29T20:02:53.604Z,96080.50
2022-09-29T20:05:20.277Z,96080.97
2022-09-29T20:07:46.878Z,96096.88
2022-09-29T20:10:16.489Z,96085.63
2022-09-29T20:12:43.582Z,96089.34
2022-09-29T20:15:13.672Z,96091.63
2022-09-29T20:17:40.956Z,96087.44
2022-09-29T20:20:10.099Z,96089.94
2022-09-29T20:22:36.942Z,96086.47
2022-09-29T20:25:05.323Z,96096.13
2022-09-29T20:27:31.904Z,96096.59
2022-09-29T20:29:58.464Z,96096.59
2022-09-29T20:32:25.110Z,96092.09
2022-09-29T20:34:51.606Z,96093.88
2022-09-29T20:37:18.066Z,96094.13
2022-09-29T20:39:44.590Z,96089.72
2022-09-29T20:42:11.850Z,96095.09
2022-09-29T20:44:38.337Z,96095.22
2022-09-29T20:47:06.028Z,96098.19
2022-09-29T20:49:32.629Z,96097.34
2022-09-29T20:51:59.377Z,96100.69
2022-09-29T20:54:26.042Z,96103.91
2022-09-29T20:56:53.640Z,96110.22
2022-09-29T20:59:23.160Z,96109.97
2022-09-29T21:01:52.249Z,96119.88
2022-09-29T21:04:21.006Z,96113.91
2022-09-29T21:06:49.764Z,96119.66
2022-09-29T21:09:19.850Z,96117.38
2022-09-29T21:11:47.318Z,96117.16
2022-09-29T21:14:19.539Z,96128.47
2022-09-29T21:16:51.243Z,96115.72
2022-09-29T21:19:19.332Z,96121.31
2022-09-29T21:21:45.849Z,96130.28
2022-09-29T21:24:14.416Z,96125.25
2022-09-29T21:26:41.443Z,96121.91
2022-09-29T21:29:08.916Z,96116.66
2022-09-29T21:31:35.609Z,96107.47
2022-09-29T21:34:03.796Z,96115.59
2022-09-29T21:36:31.068Z,96119.88
2022-09-29T21:38:57.701Z,96129.66
2022-09-29T21:41:28.544Z,96128.38
2022-09-29T21:43:59.715Z,96125.63
2022-09-29T21:46:27.397Z,96123.81
2022-09-29T21:49:00.928Z,96129.69
2022-09-29T21:51:29.374Z,96132.06
2022-09-29T21:53:57.574Z,96125.97
2022-09-29T21:56:26.136Z,96125.16
2022-09-29T21:58:53.442Z,96127.78
2022-09-29T22:01:20.500Z,96131.47
2022-09-29T22:03:48.886Z,96133.13
2022-09-29T22:06:34.295Z,96135.41
2022-09-29T22:09:00.940Z,96139.44
2022-09-29T22:11:28.599Z,96142.19
2022-09-29T22:13:56.058Z,96141.13
2022-09-29T22:16:25.435Z,96141.84
2022-09-29T22:19:18.499Z,96132.44
2022-09-29T22:21:40.495Z,96141.63
2022-09-29T22:24:07.040Z,96138.03
2022-09-29T22:26:33.421Z,96136.94
2022-09-29T22:29:01.606Z,96137.44
2022-09-29T22:31:28.264Z,96145.31
2022-09-29T22:33:57.060Z,96143.41
2022-09-29T22:36:23.968Z,96145.19
2022-09-29T22:38:50.678Z,96145.44
2022-09-29T22:41:17.703Z,96145.66
2022-09-29T22:43:44.077Z,96147.34
2022-09-29T22:46:12.112Z,96144.59
2022-09-29T22:48:39.100Z,96143.53
2022-09-29T22:51:05.897Z,96137.91
2022-09-29T22:53:32.738Z,96148.53
2022-09-29T22:56:00.277Z,96158.09
2022-09-29T22:58:27.025Z,96154.63
2022-09-29T23:01:06.560Z,96170.38
2022-09-29T23:03:33.634Z,96167.75
2022-09-29T23:06:00.692Z,96173.13
2022-09-29T23:08:27.429Z,96165.38
2022-09-29T23:10:55.947Z,96174.56
2022-09-29T23:13:23.204Z,96168.81
2022-09-29T23:15:50.429Z,96173.81
2022-09-29T23:18:20.143Z,96170.00
2022-09-29T23:20:46.542Z,96175.97
2022-09-29T23:23:12.915Z,96169.66
2022-09-29T23:25:39.341Z,96166.09
2022-09-29T23:28:08.411Z,96170.03
2022-09-29T23:30:35.355Z,96170.72
2022-09-29T23:33:02.145Z,96160.34
2022-09-29T23:35:28.521Z,96156.88
2022-09-29T23:38:13.346Z,96159.38
2022-09-29T23:40:41.107Z,96156.53
2022-09-29T23:43:07.722Z,96163.47
2022-09-29T23:45:34.239Z,96162.41
2022-09-29T23:48:00.682Z,96171.78
2022-09-29T23:50:28.989Z,96171.69
2022-09-29T23:52:55.658Z,96174.81
2022-09-29T23:55:22.003Z,96174.81
2022-09-29T23:57:48.339Z,96184.13
